Terminal Aerodrome Forecast
Issued by NWS Shreveport, LA

Current Version | Previous Version | Text Only | Print | Product List | Glossary On
Versions: 1 2 3 4 5 6 7 8 9 10 11 12 13 14 15 16
000
FTUS44 KSHV 192300
TAFLFK
TAF
KLFK 192340Z 2000/2024 02005KT P6SM OVC007
     FM200600 03004KT 4SM BR OVC005
     FM201600 05005KT 6SM BR OVC008
     FM201800 05006KT P6SM OVC015=

USA.gov is the U.S. government's official web portal to all federal, state and local government web resources and services.